sensor_id;sensor_type;location;lat;lon;timestamp;pressure;altitude;pressure_sealevel;temperature;humidity
79461;BME280;68929;42.666;23.324;2023-07-31T00:01:33;94218.81;;;21.87;nan
79461;BME280;68929;42.666;23.324;2023-07-31T00:03:58;94218.56;;;22.02;nan
79461;BME280;68929;42.666;23.324;2023-07-31T00:06:24;94237.25;;;22.12;nan
79461;BME280;68929;42.666;23.324;2023-07-31T00:08:49;94227.97;;;22.18;nan
79461;BME280;68929;42.666;23.324;2023-07-31T00:11:15;94227.38;;;21.89;nan
79461;BME280;68929;42.666;23.324;2023-07-31T00:13:40;94203.31;;;21.79;nan
79461;BME280;68929;42.666;23.324;2023-07-31T00:16:05;94233.00;;;21.92;nan
79461;BME280;68929;42.666;23.324;2023-07-31T00:18:31;94210.75;;;21.87;nan
79461;BME280;68929;42.666;23.324;2023-07-31T00:20:56;94221.59;;;21.82;nan
79461;BME280;68929;42.666;23.324;2023-07-31T00:23:21;94238.16;;;21.89;nan
79461;BME280;68929;42.666;23.324;2023-07-31T00:25:47;94238.81;;;21.62;nan
79461;BME280;68929;42.666;23.324;2023-07-31T00:28:12;94240.38;;;21.44;nan
79461;BME280;68929;42.666;23.324;2023-07-31T00:30:38;94212.50;;;20.98;nan
79461;BME280;68929;42.666;23.324;2023-07-31T00:33:03;94216.56;;;21.19;nan
79461;BME280;68929;42.666;23.324;2023-07-31T00:35:28;94203.84;;;21.06;nan
79461;BME280;68929;42.666;23.324;2023-07-31T00:37:54;94178.53;;;21.07;nan
79461;BME280;68929;42.666;23.324;2023-07-31T00:40:19;94195.06;;;21.19;nan
79461;BME280;68929;42.666;23.324;2023-07-31T00:42:45;94190.63;;;21.28;nan
79461;BME280;68929;42.666;23.324;2023-07-31T00:45:10;94180.31;;;20.93;nan
79461;BME280;68929;42.666;23.324;2023-07-31T00:47:35;94195.41;;;20.89;nan
79461;BME280;68929;42.666;23.324;2023-07-31T00:50:01;94198.66;;;20.86;nan
79461;BME280;68929;42.666;23.324;2023-07-31T00:52:26;94197.66;;;20.82;nan
79461;BME280;68929;42.666;23.324;2023-07-31T00:54:52;94194.44;;;20.80;nan
79461;BME280;68929;42.666;23.324;2023-07-31T00:57:17;94176.72;;;20.60;nan
79461;BME280;68929;42.666;23.324;2023-07-31T00:59:43;94203.25;;;20.86;nan
79461;BME280;68929;42.666;23.324;2023-07-31T01:02:08;94187.56;;;20.93;nan
79461;BME280;68929;42.666;23.324;2023-07-31T01:04:34;94192.38;;;20.96;nan
79461;BME280;68929;42.666;23.324;2023-07-31T01:09:49;94200.13;;;20.79;nan
79461;BME280;68929;42.666;23.324;2023-07-31T01:12:18;94186.22;;;20.95;nan
79461;BME280;68929;42.666;23.324;2023-07-31T01:15:12;94193.66;;;21.03;nan
79461;BME280;68929;42.666;23.324;2023-07-31T01:17:39;94184.66;;;21.31;nan
79461;BME280;68929;42.666;23.324;2023-07-31T01:20:12;94182.03;;;21.64;nan
79461;BME280;68929;42.666;23.324;2023-07-31T01:27:44;94186.75;;;21.34;nan
79461;BME280;68929;42.666;23.324;2023-07-31T01:30:18;94191.28;;;21.39;nan
79461;BME280;68929;42.666;23.324;2023-07-31T01:32:48;94184.53;;;21.41;nan
79461;BME280;68929;42.666;23.324;2023-07-31T01:35:14;94164.41;;;20.97;nan
79461;BME280;68929;42.666;23.324;2023-07-31T01:37:40;94153.41;;;20.98;nan
79461;BME280;68929;42.666;23.324;2023-07-31T01:40:06;94182.75;;;21.13;nan
79461;BME280;68929;42.666;23.324;2023-07-31T01:42:32;94190.91;;;20.85;nan
79461;BME280;68929;42.666;23.324;2023-07-31T01:44:57;94173.38;;;20.68;nan
79461;BME280;68929;42.666;23.324;2023-07-31T01:47:23;94166.78;;;20.61;nan
79461;BME280;68929;42.666;23.324;2023-07-31T01:49:49;94165.72;;;20.57;nan
79461;BME280;68929;42.666;23.324;2023-07-31T01:52:14;94182.69;;;21.18;nan
79461;BME280;68929;42.666;23.324;2023-07-31T01:54:39;94156.78;;;20.85;nan
79461;BME280;68929;42.666;23.324;2023-07-31T01:57:05;94172.25;;;20.93;nan
79461;BME280;68929;42.666;23.324;2023-07-31T01:59:31;94177.84;;;20.97;nan
79461;BME280;68929;42.666;23.324;2023-07-31T02:01:56;94173.88;;;20.94;nan
79461;BME280;68929;42.666;23.324;2023-07-31T02:04:22;94171.09;;;20.99;nan
79461;BME280;68929;42.666;23.324;2023-07-31T02:06:47;94192.06;;;21.02;nan
79461;BME280;68929;42.666;23.324;2023-07-31T02:09:13;94190.56;;;20.91;nan
79461;BME280;68929;42.666;23.324;2023-07-31T02:11:38;94188.06;;;20.76;nan
79461;BME280;68929;42.666;23.324;2023-07-31T02:14:03;94188.66;;;20.73;nan
79461;BME280;68929;42.666;23.324;2023-07-31T02:16:29;94196.19;;;20.71;nan
79461;BME280;68929;42.666;23.324;2023-07-31T02:18:54;94201.88;;;20.88;nan
79461;BME280;68929;42.666;23.324;2023-07-31T02:21:19;94187.53;;;20.74;nan
79461;BME280;68929;42.666;23.324;2023-07-31T02:23:45;94179.25;;;20.70;nan
79461;BME280;68929;42.666;23.324;2023-07-31T02:26:10;94176.47;;;20.99;nan
79461;BME280;68929;42.666;23.324;2023-07-31T02:28:36;94202.22;;;21.05;nan
79461;BME280;68929;42.666;23.324;2023-07-31T02:31:02;94166.88;;;20.93;nan
79461;BME280;68929;42.666;23.324;2023-07-31T02:33:27;94198.81;;;21.18;nan
79461;BME280;68929;42.666;23.324;2023-07-31T02:35:53;94180.50;;;20.78;nan
79461;BME280;68929;42.666;23.324;2023-07-31T02:38:18;94192.16;;;20.92;nan
79461;BME280;68929;42.666;23.324;2023-07-31T02:40:44;94183.59;;;20.90;nan
79461;BME280;68929;42.666;23.324;2023-07-31T02:43:09;94182.91;;;21.03;nan
79461;BME280;68929;42.666;23.324;2023-07-31T02:45:35;94180.78;;;21.00;nan
79461;BME280;68929;42.666;23.324;2023-07-31T02:48:00;94188.84;;;21.00;nan
79461;BME280;68929;42.666;23.324;2023-07-31T02:50:26;94196.28;;;21.27;nan
79461;BME280;68929;42.666;23.324;2023-07-31T02:52:52;94205.81;;;21.38;nan
79461;BME280;68929;42.666;23.324;2023-07-31T02:55:18;94200.16;;;20.97;nan
79461;BME280;68929;42.666;23.324;2023-07-31T02:57:43;94216.63;;;21.14;nan
79461;BME280;68929;42.666;23.324;2023-07-31T03:00:09;94227.09;;;21.34;nan
79461;BME280;68929;42.666;23.324;2023-07-31T03:02:34;94214.09;;;20.99;nan
79461;BME280;68929;42.666;23.324;2023-07-31T03:05:00;94235.72;;;21.13;nan
79461;BME280;68929;42.666;23.324;2023-07-31T03:07:26;94219.03;;;20.92;nan
79461;BME280;68929;42.666;23.324;2023-07-31T03:09:51;94226.22;;;20.97;nan
79461;BME280;68929;42.666;23.324;2023-07-31T03:12:16;94227.50;;;21.04;nan
79461;BME280;68929;42.666;23.324;2023-07-31T03:14:42;94203.34;;;20.99;nan
79461;BME280;68929;42.666;23.324;2023-07-31T03:17:07;94181.09;;;20.75;nan
79461;BME280;68929;42.666;23.324;2023-07-31T03:19:32;94203.53;;;20.84;nan
79461;BME280;68929;42.666;23.324;2023-07-31T03:22:01;94192.69;;;20.70;nan
79461;BME280;68929;42.666;23.324;2023-07-31T03:24:28;94213.28;;;20.99;nan
79461;BME280;68929;42.666;23.324;2023-07-31T03:26:53;94215.72;;;21.00;nan
79461;BME280;68929;42.666;23.324;2023-07-31T03:29:18;94220.63;;;20.93;nan
79461;BME280;68929;42.666;23.324;2023-07-31T03:31:44;94210.47;;;20.90;nan
79461;BME280;68929;42.666;23.324;2023-07-31T03:34:09;94215.53;;;20.92;nan
79461;BME280;68929;42.666;23.324;2023-07-31T03:36:35;94218.78;;;20.89;nan
79461;BME280;68929;42.666;23.324;2023-07-31T03:39:00;94224.84;;;20.99;nan
79461;BME280;68929;42.666;23.324;2023-07-31T03:41:25;94236.69;;;20.98;nan
79461;BME280;68929;42.666;23.324;2023-07-31T03:43:51;94230.00;;;20.96;nan
79461;BME280;68929;42.666;23.324;2023-07-31T03:46:22;94223.34;;;20.88;nan
79461;BME280;68929;42.666;23.324;2023-07-31T03:48:47;94214.34;;;20.79;nan
79461;BME280;68929;42.666;23.324;2023-07-31T03:51:13;94211.16;;;20.77;nan
79461;BME280;68929;42.666;23.324;2023-07-31T03:53:38;94232.38;;;20.97;nan
79461;BME280;68929;42.666;23.324;2023-07-31T03:56:04;94245.81;;;21.02;nan
79461;BME280;68929;42.666;23.324;2023-07-31T03:58:29;94240.47;;;21.21;nan
79461;BME280;68929;42.666;23.324;2023-07-31T04:00:55;94244.16;;;21.01;nan
79461;BME280;68929;42.666;23.324;2023-07-31T04:03:20;94243.47;;;20.91;nan
79461;BME280;68929;42.666;23.324;2023-07-31T04:05:48;94239.72;;;21.15;nan
79461;BME280;68929;42.666;23.324;2023-07-31T04:08:16;94251.56;;;21.14;nan
79461;BME280;68929;42.666;23.324;2023-07-31T04:10:42;94258.44;;;20.97;nan
79461;BME280;68929;42.666;23.324;2023-07-31T04:13:07;94244.75;;;20.98;nan
79461;BME280;68929;42.666;23.324;2023-07-31T04:15:32;94249.88;;;20.95;nan
79461;BME280;68929;42.666;23.324;2023-07-31T04:17:58;94248.06;;;20.90;nan
79461;BME280;68929;42.666;23.324;2023-07-31T04:20:23;94225.53;;;20.86;nan
79461;BME280;68929;42.666;23.324;2023-07-31T04:22:49;94257.09;;;20.99;nan
79461;BME280;68929;42.666;23.324;2023-07-31T04:25:14;94253.59;;;20.99;nan
79461;BME280;68929;42.666;23.324;2023-07-31T04:27:40;94237.22;;;21.00;nan
79461;BME280;68929;42.666;23.324;2023-07-31T04:30:06;94256.25;;;21.27;nan
79461;BME280;68929;42.666;23.324;2023-07-31T04:32:31;94274.03;;;21.23;nan
79461;BME280;68929;42.666;23.324;2023-07-31T04:34:57;94262.59;;;21.13;nan
79461;BME280;68929;42.666;23.324;2023-07-31T04:37:22;94265.00;;;21.14;nan
79461;BME280;68929;42.666;23.324;2023-07-31T04:39:47;94260.69;;;21.13;nan
79461;BME280;68929;42.666;23.324;2023-07-31T04:42:13;94243.47;;;20.91;nan
79461;BME280;68929;42.666;23.324;2023-07-31T04:44:38;94264.53;;;21.07;nan
79461;BME280;68929;42.666;23.324;2023-07-31T04:47:04;94225.66;;;21.00;nan
79461;BME280;68929;42.666;23.324;2023-07-31T04:49:29;94251.38;;;21.29;nan
79461;BME280;68929;42.666;23.324;2023-07-31T04:51:55;94240.34;;;21.49;nan
79461;BME280;68929;42.666;23.324;2023-07-31T04:54:20;94261.47;;;21.75;nan
79461;BME280;68929;42.666;23.324;2023-07-31T04:56:45;94237.50;;;21.60;nan
79461;BME280;68929;42.666;23.324;2023-07-31T04:59:17;94237.75;;;21.82;nan
79461;BME280;68929;42.666;23.324;2023-07-31T05:01:45;94258.66;;;21.85;nan
79461;BME280;68929;42.666;23.324;2023-07-31T05:04:14;94248.75;;;21.62;nan
79461;BME280;68929;42.666;23.324;2023-07-31T05:06:40;94241.63;;;21.71;nan
79461;BME280;68929;42.666;23.324;2023-07-31T05:09:06;94257.28;;;21.87;nan
79461;BME280;68929;42.666;23.324;2023-07-31T05:11:32;94257.94;;;21.98;nan
79461;BME280;68929;42.666;23.324;2023-07-31T05:13:57;94238.41;;;22.06;nan
79461;BME280;68929;42.666;23.324;2023-07-31T05:16:22;94242.44;;;22.22;nan
79461;BME280;68929;42.666;23.324;2023-07-31T05:18:48;94232.69;;;22.26;nan
79461;BME280;68929;42.666;23.324;2023-07-31T05:21:14;94241.94;;;22.52;nan
79461;BME280;68929;42.666;23.324;2023-07-31T05:23:39;94253.56;;;22.80;nan
79461;BME280;68929;42.666;23.324;2023-07-31T05:26:05;94242.13;;;22.56;nan
79461;BME280;68929;42.666;23.324;2023-07-31T05:28:31;94254.09;;;22.50;nan
79461;BME280;68929;42.666;23.324;2023-07-31T05:31:00;94233.53;;;22.40;nan
79461;BME280;68929;42.666;23.324;2023-07-31T05:33:26;94267.13;;;22.88;nan
79461;BME280;68929;42.666;23.324;2023-07-31T05:35:51;94257.03;;;22.35;nan
79461;BME280;68929;42.666;23.324;2023-07-31T05:38:17;94242.13;;;22.10;nan
79461;BME280;68929;42.666;23.324;2023-07-31T05:40:43;94252.03;;;22.28;nan
79461;BME280;68929;42.666;23.324;2023-07-31T05:43:08;94255.75;;;22.64;nan
79461;BME280;68929;42.666;23.324;2023-07-31T05:45:34;94227.31;;;22.85;nan
79461;BME280;68929;42.666;23.324;2023-07-31T05:48:00;94255.19;;;22.94;nan
79461;BME280;68929;42.666;23.324;2023-07-31T05:50:25;94246.16;;;22.58;nan
79461;BME280;68929;42.666;23.324;2023-07-31T05:52:51;94257.16;;;22.75;nan
79461;BME280;68929;42.666;23.324;2023-07-31T05:55:16;94260.56;;;22.94;nan
79461;BME280;68929;42.666;23.324;2023-07-31T05:57:42;94266.75;;;23.09;nan
79461;BME280;68929;42.666;23.324;2023-07-31T06:00:08;94236.97;;;22.59;nan
79461;BME280;68929;42.666;23.324;2023-07-31T06:02:33;94251.72;;;22.62;nan
79461;BME280;68929;42.666;23.324;2023-07-31T06:05:02;94262.56;;;22.43;nan
79461;BME280;68929;42.666;23.324;2023-07-31T06:07:29;94273.47;;;22.19;nan
79461;BME280;68929;42.666;23.324;2023-07-31T06:09:54;94253.47;;;22.39;nan
79461;BME280;68929;42.666;23.324;2023-07-31T06:12:20;94278.25;;;22.55;nan
79461;BME280;68929;42.666;23.324;2023-07-31T06:14:46;94270.31;;;22.63;nan
79461;BME280;68929;42.666;23.324;2023-07-31T06:17:11;94251.56;;;23.13;nan
79461;BME280;68929;42.666;23.324;2023-07-31T06:19:36;94278.31;;;23.50;nan
79461;BME280;68929;42.666;23.324;2023-07-31T06:22:02;94271.28;;;23.76;nan
79461;BME280;68929;42.666;23.324;2023-07-31T06:24:28;94255.03;;;23.54;nan
79461;BME280;68929;42.666;23.324;2023-07-31T06:27:00;94272.69;;;23.60;nan
79461;BME280;68929;42.666;23.324;2023-07-31T06:29:25;94272.22;;;23.31;nan
79461;BME280;68929;42.666;23.324;2023-07-31T06:31:50;94256.66;;;23.28;nan
79461;BME280;68929;42.666;23.324;2023-07-31T06:34:16;94280.31;;;23.31;nan
79461;BME280;68929;42.666;23.324;2023-07-31T06:36:42;94251.84;;;23.25;nan
79461;BME280;68929;42.666;23.324;2023-07-31T06:39:07;94235.28;;;23.18;nan
79461;BME280;68929;42.666;23.324;2023-07-31T06:41:35;94275.47;;;23.82;nan
79461;BME280;68929;42.666;23.324;2023-07-31T06:44:01;94275.81;;;23.89;nan
79461;BME280;68929;42.666;23.324;2023-07-31T06:46:26;94276.03;;;23.93;nan
79461;BME280;68929;42.666;23.324;2023-07-31T06:48:52;94257.41;;;23.91;nan
79461;BME280;68929;42.666;23.324;2023-07-31T06:51:17;94261.25;;;23.41;nan
79461;BME280;68929;42.666;23.324;2023-07-31T06:53:42;94277.31;;;23.19;nan
79461;BME280;68929;42.666;23.324;2023-07-31T06:56:10;94284.50;;;23.10;nan
79461;BME280;68929;42.666;23.324;2023-07-31T06:58:35;94263.75;;;22.96;nan
79461;BME280;68929;42.666;23.324;2023-07-31T07:01:08;94278.72;;;22.75;nan
79461;BME280;68929;42.666;23.324;2023-07-31T07:03:34;94239.91;;;22.44;nan
79461;BME280;68929;42.666;23.324;2023-07-31T07:05:59;94278.47;;;22.72;nan
79461;BME280;68929;42.666;23.324;2023-07-31T07:08:25;94245.31;;;22.44;nan
79461;BME280;68929;42.666;23.324;2023-07-31T07:11:03;94260.66;;;22.89;nan
79461;BME280;68929;42.666;23.324;2023-07-31T07:13:28;94257.16;;;23.30;nan
79461;BME280;68929;42.666;23.324;2023-07-31T07:16:03;94282.50;;;23.56;nan
79461;BME280;68929;42.666;23.324;2023-07-31T07:18:28;94285.97;;;23.70;nan
79461;BME280;68929;42.666;23.324;2023-07-31T07:20:54;94281.50;;;23.52;nan
79461;BME280;68929;42.666;23.324;2023-07-31T07:23:20;94261.97;;;23.33;nan
79461;BME280;68929;42.666;23.324;2023-07-31T07:25:47;94265.22;;;23.57;nan
79461;BME280;68929;42.666;23.324;2023-07-31T07:28:13;94271.78;;;24.00;nan
79461;BME280;68929;42.666;23.324;2023-07-31T07:30:39;94256.81;;;23.94;nan
79461;BME280;68929;42.666;23.324;2023-07-31T07:33:04;94264.78;;;23.99;nan
79461;BME280;68929;42.666;23.324;2023-07-31T07:35:30;94249.00;;;24.06;nan
79461;BME280;68929;42.666;23.324;2023-07-31T07:37:57;94272.56;;;24.36;nan
79461;BME280;68929;42.666;23.324;2023-07-31T07:40:23;94254.72;;;24.57;nan
79461;BME280;68929;42.666;23.324;2023-07-31T07:42:49;94261.19;;;25.01;nan
79461;BME280;68929;42.666;23.324;2023-07-31T07:45:15;94270.09;;;25.10;nan
79461;BME280;68929;42.666;23.324;2023-07-31T07:47:42;94265.25;;;25.29;nan
79461;BME280;68929;42.666;23.324;2023-07-31T07:50:13;94281.91;;;25.14;nan
79461;BME280;68929;42.666;23.324;2023-07-31T07:52:40;94282.19;;;25.04;nan
79461;BME280;68929;42.666;23.324;2023-07-31T07:55:11;94286.38;;;25.18;nan
79461;BME280;68929;42.666;23.324;2023-07-31T07:57:36;94281.81;;;24.88;nan
79461;BME280;68929;42.666;23.324;2023-07-31T08:00:02;94284.41;;;25.02;nan
79461;BME280;68929;42.666;23.324;2023-07-31T08:02:35;94284.75;;;25.09;nan
79461;BME280;68929;42.666;23.324;2023-07-31T08:05:00;94286.28;;;25.01;nan
79461;BME280;68929;42.666;23.324;2023-07-31T08:07:26;94290.56;;;24.94;nan
79461;BME280;68929;42.666;23.324;2023-07-31T08:09:52;94283.97;;;25.17;nan
79461;BME280;68929;42.666;23.324;2023-07-31T08:12:17;94299.59;;;25.20;nan
79461;BME280;68929;42.666;23.324;2023-07-31T08:14:42;94278.72;;;25.51;nan
79461;BME280;68929;42.666;23.324;2023-07-31T08:17:08;94280.34;;;25.69;nan
79461;BME280;68929;42.666;23.324;2023-07-31T08:19:42;94280.69;;;25.76;nan
79461;BME280;68929;42.666;23.324;2023-07-31T08:22:07;94283.69;;;25.75;nan
79461;BME280;68929;42.666;23.324;2023-07-31T08:24:45;94274.50;;;26.10;nan
79461;BME280;68929;42.666;23.324;2023-07-31T08:27:14;94277.66;;;26.55;nan
79461;BME280;68929;42.666;23.324;2023-07-31T08:29:39;94288.34;;;26.43;nan
79461;BME280;68929;42.666;23.324;2023-07-31T08:32:05;94292.44;;;25.72;nan
79461;BME280;68929;42.666;23.324;2023-07-31T08:34:34;94290.25;;;25.82;nan
79461;BME280;68929;42.666;23.324;2023-07-31T08:36:59;94294.69;;;25.95;nan
79461;BME280;68929;42.666;23.324;2023-07-31T08:39:31;94259.63;;;25.73;nan
79461;BME280;68929;42.666;23.324;2023-07-31T08:42:00;94295.38;;;26.09;nan
79461;BME280;68929;42.666;23.324;2023-07-31T08:44:25;94291.38;;;26.07;nan
79461;BME280;68929;42.666;23.324;2023-07-31T08:46:51;94277.81;;;26.33;nan
79461;BME280;68929;42.666;23.324;2023-07-31T08:49:22;94291.69;;;26.40;nan
79461;BME280;68929;42.666;23.324;2023-07-31T08:51:53;94277.66;;;26.38;nan
79461;BME280;68929;42.666;23.324;2023-07-31T08:54:20;94268.22;;;26.61;nan
79461;BME280;68929;42.666;23.324;2023-07-31T08:56:46;94274.94;;;25.86;nan
79461;BME280;68929;42.666;23.324;2023-07-31T08:59:12;94278.97;;;25.41;nan
79461;BME280;68929;42.666;23.324;2023-07-31T09:01:49;94279.25;;;25.31;nan
79461;BME280;68929;42.666;23.324;2023-07-31T09:04:16;94265.59;;;25.36;nan
79461;BME280;68929;42.666;23.324;2023-07-31T09:06:44;94289.97;;;26.09;nan
79461;BME280;68929;42.666;23.324;2023-07-31T09:09:10;94269.22;;;26.31;nan
79461;BME280;68929;42.666;23.324;2023-07-31T09:11:35;94271.78;;;26.19;nan
79461;BME280;68929;42.666;23.324;2023-07-31T09:14:02;94265.66;;;26.56;nan
79461;BME280;68929;42.666;23.324;2023-07-31T09:16:33;94274.91;;;26.80;nan
79461;BME280;68929;42.666;23.324;2023-07-31T09:18:59;94270.63;;;26.54;nan
79461;BME280;68929;42.666;23.324;2023-07-31T09:21:29;94277.44;;;26.68;nan
79461;BME280;68929;42.666;23.324;2023-07-31T09:23:54;94258.75;;;26.92;nan
79461;BME280;68929;42.666;23.324;2023-07-31T09:26:32;94270.59;;;27.34;nan
79461;BME280;68929;42.666;23.324;2023-07-31T09:29:00;94270.25;;;27.27;nan
79461;BME280;68929;42.666;23.324;2023-07-31T09:31:32;94234.19;;;26.26;nan
79461;BME280;68929;42.666;23.324;2023-07-31T09:33:58;94258.22;;;26.44;nan
79461;BME280;68929;42.666;23.324;2023-07-31T09:36:23;94264.22;;;26.67;nan
79461;BME280;68929;42.666;23.324;2023-07-31T09:38:49;94258.25;;;26.99;nan
79461;BME280;68929;42.666;23.324;2023-07-31T09:41:14;94244.91;;;27.23;nan
79461;BME280;68929;42.666;23.324;2023-07-31T09:43:39;94219.25;;;27.70;nan
79461;BME280;68929;42.666;23.324;2023-07-31T09:46:13;94250.41;;;28.14;nan
79461;BME280;68929;42.666;23.324;2023-07-31T09:48:39;94243.94;;;28.39;nan
79461;BME280;68929;42.666;23.324;2023-07-31T09:51:04;94259.72;;;28.46;nan
79461;BME280;68929;42.666;23.324;2023-07-31T09:53:30;94254.28;;;28.13;nan
79461;BME280;68929;42.666;23.324;2023-07-31T09:56:02;94233.53;;;28.09;nan
79461;BME280;68929;42.666;23.324;2023-07-31T09:58:29;94242.47;;;27.89;nan
79461;BME280;68929;42.666;23.324;2023-07-31T10:00:57;94245.53;;;28.08;nan
79461;BME280;68929;42.666;23.324;2023-07-31T10:03:24;94224.84;;;28.48;nan
79461;BME280;68929;42.666;23.324;2023-07-31T10:05:50;94231.53;;;28.51;nan
79461;BME280;68929;42.666;23.324;2023-07-31T10:08:20;94216.81;;;28.84;nan
79461;BME280;68929;42.666;23.324;2023-07-31T10:10:47;94251.47;;;28.22;nan
79461;BME280;68929;42.666;23.324;2023-07-31T10:13:13;94249.72;;;27.76;nan
79461;BME280;68929;42.666;23.324;2023-07-31T10:15:40;94226.94;;;27.89;nan
79461;BME280;68929;42.666;23.324;2023-07-31T10:18:08;94248.56;;;28.92;nan
79461;BME280;68929;42.666;23.324;2023-07-31T10:20:46;94219.44;;;29.65;nan
79461;BME280;68929;42.666;23.324;2023-07-31T10:23:12;94241.47;;;29.72;nan
79461;BME280;68929;42.666;23.324;2023-07-31T10:25:38;94239.28;;;29.90;nan
79461;BME280;68929;42.666;23.324;2023-07-31T10:28:04;94222.34;;;30.79;nan
79461;BME280;68929;42.666;23.324;2023-07-31T10:30:30;94235.34;;;31.29;nan
79461;BME280;68929;42.666;23.324;2023-07-31T10:32:58;94225.50;;;30.94;nan
79461;BME280;68929;42.666;23.324;2023-07-31T10:35:24;94226.03;;;30.56;nan
79461;BME280;68929;42.666;23.324;2023-07-31T10:37:49;94227.66;;;30.45;nan
79461;BME280;68929;42.666;23.324;2023-07-31T10:40:22;94225.84;;;30.09;nan
79461;BME280;68929;42.666;23.324;2023-07-31T10:42:57;94207.41;;;30.18;nan
79461;BME280;68929;42.666;23.324;2023-07-31T10:48:04;94207.34;;;32.17;nan
79461;BME280;68929;42.666;23.324;2023-07-31T10:50:37;94210.72;;;31.76;nan
79461;BME280;68929;42.666;23.324;2023-07-31T10:53:06;94223.03;;;31.35;nan
79461;BME280;68929;42.666;23.324;2023-07-31T10:55:44;94207.59;;;30.25;nan
79461;BME280;68929;42.666;23.324;2023-07-31T10:58:18;94205.25;;;29.84;nan
79461;BME280;68929;42.666;23.324;2023-07-31T11:00:44;94210.25;;;30.93;nan
79461;BME280;68929;42.666;23.324;2023-07-31T11:03:13;94216.41;;;32.21;nan
79461;BME280;68929;42.666;23.324;2023-07-31T11:08:23;94208.91;;;32.76;nan
79461;BME280;68929;42.666;23.324;2023-07-31T11:13:21;94194.97;;;32.04;nan
79461;BME280;68929;42.666;23.324;2023-07-31T11:15:47;94186.47;;;31.40;nan
79461;BME280;68929;42.666;23.324;2023-07-31T11:18:12;94184.38;;;31.18;nan
79461;BME280;68929;42.666;23.324;2023-07-31T11:20:40;94185.53;;;31.67;nan
79461;BME280;68929;42.666;23.324;2023-07-31T11:23:07;94207.38;;;32.56;nan
79461;BME280;68929;42.666;23.324;2023-07-31T11:25:40;94210.16;;;33.99;nan
79461;BME280;68929;42.666;23.324;2023-07-31T11:28:11;94207.34;;;33.17;nan
79461;BME280;68929;42.666;23.324;2023-07-31T11:30:37;94200.38;;;33.98;nan
79461;BME280;68929;42.666;23.324;2023-07-31T11:33:09;94195.47;;;34.40;nan
79461;BME280;68929;42.666;23.324;2023-07-31T11:35:56;94197.25;;;34.95;nan
79461;BME280;68929;42.666;23.324;2023-07-31T11:38:22;94191.63;;;34.15;nan
79461;BME280;68929;42.666;23.324;2023-07-31T11:40:57;94195.84;;;32.08;nan
79461;BME280;68929;42.666;23.324;2023-07-31T11:43:23;94184.63;;;30.38;nan
79461;BME280;68929;42.666;23.324;2023-07-31T11:45:54;94174.91;;;29.21;nan
79461;BME280;68929;42.666;23.324;2023-07-31T11:48:34;94195.09;;;29.20;nan
79461;BME280;68929;42.666;23.324;2023-07-31T11:51:04;94188.63;;;31.00;nan
79461;BME280;68929;42.666;23.324;2023-07-31T11:56:18;94163.44;;;33.13;nan
79461;BME280;68929;42.666;23.324;2023-07-31T11:58:46;94191.63;;;32.72;nan
79461;BME280;68929;42.666;23.324;2023-07-31T12:01:14;94171.34;;;33.18;nan
79461;BME280;68929;42.666;23.324;2023-07-31T12:03:41;94181.13;;;33.94;nan
79461;BME280;68929;42.666;23.324;2023-07-31T12:06:09;94179.41;;;34.75;nan
79461;BME280;68929;42.666;23.324;2023-07-31T12:08:36;94184.06;;;33.82;nan
79461;BME280;68929;42.666;23.324;2023-07-31T12:11:06;94178.72;;;33.40;nan
79461;BME280;68929;42.666;23.324;2023-07-31T12:13:32;94151.44;;;33.73;nan
79461;BME280;68929;42.666;23.324;2023-07-31T12:16:06;94185.38;;;34.18;nan
79461;BME280;68929;42.666;23.324;2023-07-31T12:18:36;94173.63;;;34.87;nan
79461;BME280;68929;42.666;23.324;2023-07-31T12:21:05;94164.63;;;33.91;nan
79461;BME280;68929;42.666;23.324;2023-07-31T12:23:32;94173.22;;;34.85;nan
79461;BME280;68929;42.666;23.324;2023-07-31T12:26:12;94178.53;;;33.26;nan
79461;BME280;68929;42.666;23.324;2023-07-31T12:28:49;94174.88;;;31.12;nan
79461;BME280;68929;42.666;23.324;2023-07-31T12:31:19;94148.97;;;30.74;nan
79461;BME280;68929;42.666;23.324;2023-07-31T12:33:52;94169.81;;;30.83;nan
79461;BME280;68929;42.666;23.324;2023-07-31T12:36:25;94159.94;;;30.62;nan
79461;BME280;68929;42.666;23.324;2023-07-31T12:39:06;94160.00;;;30.35;nan
79461;BME280;68929;42.666;23.324;2023-07-31T12:41:32;94166.25;;;31.10;nan
79461;BME280;68929;42.666;23.324;2023-07-31T12:43:58;94144.69;;;30.89;nan
79461;BME280;68929;42.666;23.324;2023-07-31T12:46:23;94144.22;;;30.28;nan
79461;BME280;68929;42.666;23.324;2023-07-31T12:48:48;94168.25;;;29.59;nan
79461;BME280;68929;42.666;23.324;2023-07-31T12:51:18;94152.22;;;29.17;nan
79461;BME280;68929;42.666;23.324;2023-07-31T12:53:43;94154.13;;;28.81;nan
79461;BME280;68929;42.666;23.324;2023-07-31T12:56:16;94127.50;;;28.74;nan
79461;BME280;68929;42.666;23.324;2023-07-31T12:58:42;94128.31;;;29.63;nan
79461;BME280;68929;42.666;23.324;2023-07-31T13:01:08;94146.56;;;29.62;nan
79461;BME280;68929;42.666;23.324;2023-07-31T13:03:34;94149.91;;;29.44;nan
79461;BME280;68929;42.666;23.324;2023-07-31T13:06:00;94138.50;;;29.78;nan
79461;BME280;68929;42.666;23.324;2023-07-31T13:08:25;94125.56;;;29.87;nan
79461;BME280;68929;42.666;23.324;2023-07-31T13:10:50;94128.72;;;29.89;nan
79461;BME280;68929;42.666;23.324;2023-07-31T13:13:16;94133.84;;;29.27;nan
79461;BME280;68929;42.666;23.324;2023-07-31T13:15:43;94127.81;;;29.09;nan
79461;BME280;68929;42.666;23.324;2023-07-31T13:18:14;94145.16;;;29.41;nan
79461;BME280;68929;42.666;23.324;2023-07-31T13:20:39;94151.06;;;29.43;nan
79461;BME280;68929;42.666;23.324;2023-07-31T13:23:08;94143.06;;;28.53;nan
79461;BME280;68929;42.666;23.324;2023-07-31T13:25:39;94141.25;;;28.45;nan
79461;BME280;68929;42.666;23.324;2023-07-31T13:28:04;94146.13;;;28.52;nan